Time;durP1;ratioP1;P1;durP2;ratioP2;P2;SDS_P1;SDS_P2;PMS_P1;PMS_P2;Temp;Humidity;BMP_temperature;BMP_pressure;BME280_temperature;BME280_humidity;BME280_pressure;Samples;Min_cycle;Max_cycle;Signal;HPM_P1;HPM_P2
2024/01/18 00:00:50;;;;;;;;;29.75;28.25;;;;;7.74;100.00;98433.91;2093267;28;47119;-66
2024/01/18 00:01:51;;;;;;;;;34.75;30.50;;;;;7.74;100.00;98432.13;2094897;28;46561;-66
2024/01/18 00:02:51;;;;;;;;;27.60;26.40;;;;;7.73;100.00;98426.91;2094399;28;46553;-66
2024/01/18 00:03:51;;;;;;;;;33.00;31.50;;;;;7.72;100.00;98428.69;2094977;28;46546;-67
2024/01/18 00:04:52;;;;;;;;;28.75;26.75;;;;;7.74;100.00;98426.00;2095146;28;47025;-66
2024/01/18 00:05:52;;;;;;;;;31.00;31.00;;;;;7.62;100.00;98420.38;2095869;28;46076;-65
2024/01/18 00:06:52;;;;;;;;;37.75;34.25;;;;;7.57;100.00;98416.22;2094353;28;46416;-66
2024/01/18 00:07:52;;;;;;;;;8.75;8.00;;;;;7.50;100.00;98420.94;2086474;28;46570;-66
2024/01/18 00:08:53;;;;;;;;;36.00;31.75;;;;;7.49;100.00;98420.97;2085403;28;45467;-66
2024/01/18 00:09:53;;;;;;;;;32.00;28.00;;;;;7.49;100.00;98424.47;2096609;28;46302;-65
2024/01/18 00:10:53;;;;;;;;;30.75;29.00;;;;;7.44;100.00;98431.75;2095752;28;46538;-66
2024/01/18 00:11:54;;;;;;;;;34.50;31.25;;;;;7.47;100.00;98434.25;2096133;28;46876;-65
2024/01/18 00:12:54;;;;;;;;;33.25;29.00;;;;;7.50;100.00;98455.25;2094391;28;46198;-66
2024/01/18 00:13:55;;;;;;;;;18.50;14.50;;;;;7.47;100.00;98470.34;2095732;28;46215;-66
2024/01/18 00:14:55;;;;;;;;;29.00;24.50;;;;;7.44;100.00;98466.06;2093882;28;46360;-66
2024/01/18 00:15:55;;;;;;;;;27.00;27.00;;;;;7.59;100.00;98475.91;2096101;28;46432;-65
2024/01/18 00:16:56;;;;;;;;;38.00;32.75;;;;;7.65;100.00;98473.03;2092679;28;47298;-66
2024/01/18 00:17:56;;;;;;;;;30.25;28.50;;;;;7.66;100.00;98464.19;2094749;28;46634;-66
2024/01/18 00:18:57;;;;;;;;;34.75;33.00;;;;;7.71;100.00;98465.72;2094886;28;46893;-66
2024/01/18 00:19:57;;;;;;;;;27.75;26.75;;;;;7.56;100.00;98465.50;2095775;28;46283;-65
2024/01/18 00:20:57;;;;;;;;;27.75;24.50;;;;;7.57;100.00;98471.66;2092464;28;46143;-66
2024/01/18 00:21:58;;;;;;;;;26.25;26.25;;;;;7.50;100.00;98481.63;2094701;28;46679;-67
2024/01/18 00:22:58;;;;;;;;;32.00;29.75;;;;;7.53;100.00;98480.63;2093898;28;46910;-66
2024/01/18 00:23:58;;;;;;;;;25.50;25.00;;;;;7.54;100.00;98480.56;2096194;28;46361;-67
2024/01/18 00:24:59;;;;;;;;;27.00;26.25;;;;;7.67;100.00;98479.09;2094426;28;47077;-66
2024/01/18 00:25:59;;;;;;;;;28.75;25.50;;;;;7.59;100.00;98482.97;2095945;28;46201;-66
2024/01/18 00:27:00;;;;;;;;;29.00;26.75;;;;;7.53;100.00;98478.00;2092645;28;46235;-66
2024/01/18 00:28:01;;;;;;;;;24.80;23.80;;;;;7.57;100.00;98479.56;2095112;28;46444;-66
2024/01/18 00:29:01;;;;;;;;;32.25;29.25;;;;;7.58;100.00;98479.50;2094044;28;45203;-66
2024/01/18 00:30:02;;;;;;;;;27.00;25.00;;;;;7.51;100.00;98474.56;2096417;28;46460;-67
2024/01/18 00:31:03;;;;;;;;;28.25;25.00;;;;;7.50;100.00;98468.44;2093953;28;46823;-66
2024/01/18 00:32:04;;;;;;;;;19.75;18.50;;;;;7.50;100.00;98473.72;2095268;28;46669;-66
2024/01/18 00:33:04;;;;;;;;;25.50;23.75;;;;;7.50;100.00;98475.50;2085699;28;46397;-66
2024/01/18 00:34:05;;;;;;;;;27.00;24.50;;;;;7.50;100.00;98476.38;2096347;28;46476;-66
2024/01/18 00:35:05;;;;;;;;;26.00;25.75;;;;;7.50;100.00;98478.16;2095862;28;46806;-66
2024/01/18 00:36:06;;;;;;;;;26.00;26.00;;;;;7.50;100.00;98486.91;2096625;28;46552;-66
2024/01/18 00:37:06;;;;;;;;;25.50;25.25;;;;;7.49;100.00;98485.19;2095875;28;46147;-66
2024/01/18 00:38:07;;;;;;;;;24.50;23.75;;;;;7.58;100.00;98482.13;2097661;28;46224;-66
2024/01/18 00:39:11;;;;;;;;;16.50;16.25;;;;;7.53;100.00;98478.84;2096101;28;45048;-65
2024/01/18 00:40:15;;;;;;;;;25.00;23.60;;;;;7.59;100.00;98475.06;2095195;28;47074;-65
2024/01/18 00:41:15;;;;;;;;;33.00;31.00;;;;;7.63;100.00;98471.38;2087498;28;46695;-67
2024/01/18 00:42:16;;;;;;;;;28.25;27.25;;;;;7.64;100.00;98476.59;2096547;28;45937;-66
2024/01/18 00:43:17;;;;;;;;;27.75;25.50;;;;;7.65;100.00;98467.75;2094103;28;46631;-66
2024/01/18 00:44:17;;;;;;;;;27.50;23.00;;;;;7.66;100.00;98474.72;2097899;28;46409;-66
2024/01/18 00:45:17;;;;;;;;;26.00;21.00;;;;;7.69;100.00;98479.00;2095680;28;46588;-66
2024/01/18 00:46:21;;;;;;;;;23.50;21.50;;;;;7.69;100.00;98473.72;2097057;28;46950;-66
2024/01/18 00:47:21;;;;;;;;;22.00;21.20;;;;;7.65;100.00;98475.66;2095633;28;46364;-66
2024/01/18 00:48:22;;;;;;;;;21.00;20.00;;;;;7.67;100.00;98479.09;2097644;28;46626;-65
2024/01/18 00:49:22;;;;;;;;;23.25;22.50;;;;;7.68;100.00;98478.16;2093701;28;46216;-65
2024/01/18 00:50:22;;;;;;;;;22.25;22.25;;;;;7.67;100.00;98465.88;2095740;28;46606;-66
2024/01/18 00:51:23;;;;;;;;;35.50;29.75;;;;;7.66;100.00;98469.44;2095839;28;46040;-66
2024/01/18 00:52:23;;;;;;;;;23.50;19.25;;;;;7.67;100.00;98465.88;2098160;28;46705;-66
2024/01/18 00:53:23;;;;;;;;;22.25;22.00;;;;;7.66;100.00;98466.81;2096005;28;46681;-66
2024/01/18 00:54:24;;;;;;;;;21.00;21.00;;;;;7.63;100.00;98455.53;2096517;28;46361;-66
2024/01/18 00:55:24;;;;;;;;;22.00;22.00;;;;;7.65;100.00;98461.59;2095665;28;45855;-66
2024/01/18 00:56:24;;;;;;;;;23.50;22.25;;;;;7.66;100.00;98463.31;2097555;28;46154;-66
2024/01/18 00:57:25;;;;;;;;;24.50;24.25;;;;;7.64;100.00;98465.19;2095904;28;46358;-66
2024/01/18 00:58:25;;;;;;;;;20.25;18.25;;;;;7.60;100.00;98464.44;2097389;28;46436;-66
2024/01/18 00:59:25;;;;;;;;;22.25;22.25;;;;;7.59;100.00;98467.16;2096421;28;46740;-66
2024/01/18 01:00:26;;;;;;;;;21.00;21.00;;;;;7.57;100.00;98469.88;2097763;28;46579;-66
2024/01/18 01:01:26;;;;;;;;;22.75;22.00;;;;;7.53;100.00;98468.28;2095395;28;46697;-66
2024/01/18 01:02:26;;;;;;;;;22.00;20.75;;;;;7.53;100.00;98478.84;2097746;28;46472;-66
2024/01/18 01:03:27;;;;;;;;;18.25;16.75;;;;;7.54;100.00;98485.00;2095659;28;46575;-66
2024/01/18 01:04:27;;;;;;;;;24.50;21.50;;;;;7.65;100.00;98475.66;2097456;28;46652;-66
2024/01/18 01:05:27;;;;;;;;;20.50;19.75;;;;;7.64;100.00;98476.59;2096404;28;46482;-66
2024/01/18 01:06:28;;;;;;;;;14.00;14.00;;;;;7.55;100.00;98471.72;2094157;28;46020;-66
2024/01/18 01:07:28;;;;;;;;;19.50;17.75;;;;;7.55;100.00;98469.09;2095934;28;45896;-66
2024/01/18 01:08:29;;;;;;;;;21.75;19.75;;;;;7.59;100.00;98472.44;2097738;28;46926;-66
2024/01/18 01:09:29;;;;;;;;;20.75;20.00;;;;;7.57;100.00;98464.59;2094537;28;45429;-66
2024/01/18 01:10:30;;;;;;;;;22.50;18.75;;;;;7.52;100.00;98471.00;2097509;28;46584;-66
2024/01/18 01:11:30;;;;;;;;;21.20;20.20;;;;;7.50;100.00;98459.66;2096218;28;46331;-65
2024/01/18 01:12:31;;;;;;;;;20.25;18.75;;;;;7.49;100.00;98465.84;2097037;28;46369;-66
2024/01/18 01:13:32;;;;;;;;;21.75;19.75;;;;;7.49;100.00;98457.94;2095512;28;46339;-66
2024/01/18 01:14:32;;;;;;;;;21.20;19.40;;;;;7.49;100.00;98455.28;2097373;28;46905;-65
2024/01/18 01:15:32;;;;;;;;;18.75;18.00;;;;;7.52;100.00;98458.66;2095237;28;46002;-66
2024/01/18 01:16:32;;;;;;;;;22.50;21.25;;;;;7.47;100.00;98451.88;2096808;28;46379;-66
2024/01/18 01:17:33;;;;;;;;;19.00;19.00;;;;;7.40;100.00;98461.00;2096610;28;46349;-66
2024/01/18 01:18:33;;;;;;;;;23.75;20.50;;;;;7.42;100.00;98440.69;2097355;28;46684;-67
2024/01/18 01:19:33;;;;;;;;;24.00;20.75;;;;;7.41;100.00;98455.66;2096050;28;46874;-66
2024/01/18 01:20:34;;;;;;;;;22.25;21.50;;;;;7.38;100.00;98458.44;2096045;28;46186;-66
2024/01/18 01:21:34;;;;;;;;;24.75;23.25;;;;;7.49;100.00;98452.66;2094037;28;46654;-67
2024/01/18 01:22:34;;;;;;;;;28.00;25.00;;;;;7.43;100.00;98455.59;2097313;28;46342;-67
2024/01/18 01:23:41;;;;;;;;;8.75;8.00;;;;;7.45;100.00;98451.09;2092779;28;46613;-66
2024/01/18 01:24:41;;;;;;;;;24.40;18.60;;;;;7.39;100.00;98454.88;2091070;28;46655;-67
2024/01/18 01:25:42;;;;;;;;;24.25;22.75;;;;;7.33;100.00;98448.06;2095809;28;46568;-66
2024/01/18 01:26:42;;;;;;;;;22.75;20.75;;;;;7.42;100.00;98446.81;2095238;28;46507;-66
2024/01/18 01:27:42;;;;;;;;;23.75;20.75;;;;;7.46;100.00;98447.53;2094999;28;46664;-66
2024/01/18 01:28:43;;;;;;;;;20.00;19.50;;;;;7.35;100.00;98448.84;2095726;28;46438;-66
2024/01/18 01:29:43;;;;;;;;;19.75;16.75;;;;;7.50;100.00;98449.97;2097350;28;47026;-66
2024/01/18 01:30:44;;;;;;;;;20.75;20.50;;;;;7.52;100.00;98452.53;2096192;28;46316;-65
2024/01/18 01:31:44;;;;;;;;;25.25;22.75;;;;;7.51;100.00;98449.03;2095102;28;45951;-66
2024/01/18 01:32:45;;;;;;;;;24.00;21.50;;;;;7.51;100.00;98451.69;2096376;28;46453;-68
2024/01/18 01:33:46;;;;;;;;;21.25;21.25;;;;;7.50;100.00;98449.97;2096555;28;46295;-66
2024/01/18 01:34:47;;;;;;;;;20.80;19.20;;;;;7.49;100.00;98447.38;2096234;28;46233;-67
2024/01/18 01:35:47;;;;;;;;;24.50;21.50;;;;;7.49;100.00;98450.00;2096997;28;47135;-66
2024/01/18 01:36:47;;;;;;;;;21.25;21.25;;;;;7.47;100.00;98450.09;2095511;28;45847;-67
2024/01/18 01:37:48;;;;;;;;;22.25;18.75;;;;;7.48;100.00;98450.94;2096955;28;46213;-65
2024/01/18 01:38:48;;;;;;;;;20.75;19.00;;;;;7.48;100.00;98461.50;2095610;28;46809;-66
2024/01/18 01:39:48;;;;;;;;;22.25;19.25;;;;;7.49;100.00;98457.94;2096533;28;47186;-66
2024/01/18 01:40:49;;;;;;;;;20.25;19.50;;;;;7.48;100.00;98450.94;2092651;28;47161;-66
2024/01/18 01:41:49;;;;;;;;;22.00;20.00;;;;;7.49;100.00;98457.94;2096986;28;46714;-66
2024/01/18 01:42:49;;;;;;;;;22.25;20.25;;;;;7.47;100.00;98451.88;2096825;28;45590;-67
2024/01/18 01:43:57;;;;;;;;;25.25;23.50;;;;;7.49;100.00;98445.59;2094683;28;45831;-66
2024/01/18 01:44:58;;;;;;;;;21.00;19.20;;;;;7.50;100.00;98460.53;2095237;28;46583;-66
2024/01/18 01:45:58;;;;;;;;;27.00;24.50;;;;;7.50;100.00;98452.63;2097077;28;45972;-67
2024/01/18 01:46:58;;;;;;;;;22.50;19.00;;;;;7.50;100.00;98457.03;2095196;28;46572;-67
2024/01/18 01:47:59;;;;;;;;;19.00;19.00;;;;;7.49;100.00;98453.50;2096642;28;46283;-68
2024/01/18 01:49:02;;;;;;;;;23.25;19.75;;;;;7.49;100.00;98460.56;2095720;28;45629;-68
2024/01/18 01:50:03;;;;;;;;;18.80;18.40;;;;;7.44;100.00;98455.50;2097188;28;45655;-67
2024/01/18 01:51:03;;;;;;;;;20.20;20.00;;;;;7.47;100.00;98462.44;2095330;28;46966;-67
2024/01/18 01:52:04;;;;;;;;;20.25;19.25;;;;;7.47;100.00;98465.91;2096735;28;46294;-67
2024/01/18 01:53:07;;;;;;;;;17.50;16.00;;;;;7.45;100.00;98470.41;2095055;28;46899;-67
2024/01/18 01:54:09;;;;;;;;;22.20;18.60;;;;;7.42;100.00;98467.91;2096960;28;46738;-67
2024/01/18 01:55:12;;;;;;;;;22.20;20.20;;;;;7.42;100.00;98469.72;2095169;28;46504;-67
2024/01/18 01:56:13;;;;;;;;;20.80;20.80;;;;;7.40;100.00;98472.41;2097088;28;46824;-67
2024/01/18 01:57:16;;;;;;;;;27.00;22.75;;;;;7.37;100.00;98473.41;2092757;28;46825;-67
2024/01/18 01:58:19;;;;;;;;;19.00;17.20;;;;;7.35;100.00;98474.38;2096328;28;46882;-67
2024/01/18 01:59:19;;;;;;;;;30.60;24.80;;;;;7.33;100.00;98492.91;2096082;28;46531;-67
2024/01/18 02:00:21;;;;;;;;;20.75;19.25;;;;;7.33;100.00;98489.44;2097827;28;45749;-67
2024/01/18 02:01:21;;;;;;;;;20.80;20.80;;;;;7.31;100.00;98492.13;2093885;28;46694;-66
2024/01/18 02:02:25;;;;;;;;;22.25;21.75;;;;;7.28;100.00;98494.06;2097669;28;46359;-67
2024/01/18 02:03:25;;;;;;;;;22.20;22.20;;;;;7.28;100.00;98496.69;2095233;28;46307;-67
2024/01/18 02:04:26;;;;;;;;;20.50;20.25;;;;;7.27;100.00;98501.13;2097398;28;44982;-67
2024/01/18 02:05:27;;;;;;;;;19.50;19.50;;;;;7.28;100.00;98507.25;2095326;28;46773;-66
2024/01/18 02:06:29;;;;;;;;;19.60;19.60;;;;;7.27;100.00;98498.47;2097344;28;45138;-66
2024/01/18 02:07:30;;;;;;;;;28.00;25.60;;;;;7.28;100.00;98494.06;2094956;28;46658;-67
2024/01/18 02:08:30;;;;;;;;;28.50;28.00;;;;;7.29;100.00;98490.50;2097196;28;46667;-66
2024/01/18 02:09:31;;;;;;;;;20.75;20.00;;;;;7.29;100.00;98493.13;2102442;28;46510;-66
2024/01/18 02:10:32;;;;;;;;;22.00;20.25;;;;;7.30;100.00;98490.44;2103447;28;46665;-66
2024/01/18 02:11:34;;;;;;;;;25.60;25.20;;;;;7.31;100.00;98494.78;2102276;28;46462;-66
2024/01/18 02:12:35;;;;;;;;;20.40;20.40;;;;;7.31;100.00;98486.00;2104673;27;46237;-66
2024/01/18 02:13:38;;;;;;;;;25.50;22.00;;;;;7.30;100.00;98490.44;2102858;28;46670;-66
2024/01/18 02:14:39;;;;;;;;;19.40;19.20;;;;;7.30;100.00;98495.72;2103334;28;46417;-66
2024/01/18 02:15:40;;;;;;;;;24.50;22.50;;;;;7.30;100.00;98487.78;2104036;27;45640;-66
2024/01/18 02:16:40;;;;;;;;;29.00;25.25;;;;;7.30;100.00;98493.06;2102105;28;46468;-66
2024/01/18 02:17:40;;;;;;;;;26.00;24.50;;;;;7.29;100.00;98486.06;2103545;27;46177;-66
2024/01/18 02:18:41;;;;;;;;;21.50;19.50;;;;;7.29;100.00;98494.00;2104063;28;44952;-67
2024/01/18 02:19:41;;;;;;;;;24.25;21.50;;;;;7.26;100.00;98482.72;2103915;28;45760;-66
2024/01/18 02:20:41;;;;;;;;;22.50;21.00;;;;;7.25;100.00;98487.16;2095042;28;45595;-67
2024/01/18 02:21:42;;;;;;;;;24.00;22.75;;;;;7.25;100.00;98488.94;2094799;28;46843;-66
2024/01/18 02:22:45;;;;;;;;;24.75;20.00;;;;;7.26;100.00;98477.44;2103624;28;46235;-66
2024/01/18 02:23:52;;;;;;;;;26.00;25.80;;;;;7.25;100.00;98483.66;2105630;27;46396;-65
2024/01/18 02:25:12;;;;;;;;;20.00;20.00;;;;;7.23;100.00;98475.78;2102715;28;46470;-66
2024/01/18 02:26:12;;;;;;;;;21.60;21.40;;;;;7.20;100.00;98473.28;2104663;28;46574;-65
2024/01/18 02:27:12;;;;;;;;;26.75;23.50;;;;;7.19;100.00;98489.19;2103457;27;46282;-67
2024/01/18 02:28:15;;;;;;;;;22.00;22.00;;;;;7.18;100.00;98479.56;2104322;28;46271;-66
2024/01/18 02:29:15;;;;;;;;;22.60;22.00;;;;;7.16;100.00;98487.53;2103089;28;45802;-65
2024/01/18 02:30:16;;;;;;;;;21.75;21.50;;;;;7.13;100.00;98481.56;2104256;27;45687;-66
2024/01/18 02:31:16;;;;;;;;;23.25;22.25;;;;;7.12;100.00;98490.38;2103143;28;46518;-66
2024/01/18 02:32:17;;;;;;;;;22.50;21.50;;;;;7.10;100.00;98495.69;2101954;27;46750;-66
2024/01/18 02:33:17;;;;;;;;;24.00;20.50;;;;;7.11;100.00;98502.69;2102382;27;45797;-67
2024/01/18 02:34:18;;;;;;;;;23.25;21.75;;;;;7.13;100.00;98494.75;2103362;27;46459;-66
2024/01/18 02:35:19;;;;;;;;;21.75;19.75;;;;;7.09;100.00;98501.91;2094547;28;45488;-66
2024/01/18 02:36:20;;;;;;;;;23.00;22.75;;;;;7.10;100.00;98506.25;2095923;28;46314;-66
2024/01/18 02:37:20;;;;;;;;;20.20;17.40;;;;;7.08;100.00;98502.81;2102668;28;46340;-66
2024/01/18 02:38:20;;;;;;;;;23.00;20.00;;;;;7.08;100.00;98503.69;2104033;28;46162;-66
2024/01/18 02:39:21;;;;;;;;;25.00;21.25;;;;;7.08;100.00;98505.47;2102824;28;46720;-66
2024/01/18 02:40:22;;;;;;;;;21.20;17.80;;;;;6.99;100.00;98511.16;2104071;28;46639;-66
2024/01/18 02:41:23;;;;;;;;;21.75;18.75;;;;;7.05;100.00;98506.47;2097607;28;47018;-66
2024/01/18 02:42:23;;;;;;;;;26.75;21.50;;;;;7.07;100.00;98512.53;2096647;28;46675;-65
2024/01/18 02:43:23;;;;;;;;;20.00;19.50;;;;;7.06;100.00;98513.44;2094520;28;46398;-65
2024/01/18 02:44:25;;;;;;;;;17.50;17.50;;;;;7.08;100.00;98522.16;2096792;28;46219;-66
2024/01/18 02:45:25;;;;;;;;;23.00;22.00;;;;;7.06;100.00;98520.50;2095727;28;45947;-65
2024/01/18 02:46:26;;;;;;;;;18.00;18.00;;;;;7.07;100.00;98522.22;2096852;28;46101;-65
2024/01/18 02:47:28;;;;;;;;;20.20;19.00;;;;;7.04;100.00;98519.72;2094822;28;46924;-66
2024/01/18 02:48:28;;;;;;;;;19.00;18.20;;;;;7.02;100.00;98508.38;2095964;28;46480;-66
2024/01/18 02:49:29;;;;;;;;;16.00;13.25;;;;;7.01;100.00;98511.94;2094980;28;46175;-66
2024/01/18 02:50:29;;;;;;;;;15.50;14.50;;;;;6.99;100.00;98517.28;2096826;28;46288;-66
2024/01/18 02:51:31;;;;;;;;;22.50;20.50;;;;;7.00;100.00;98523.41;2093700;28;46497;-67
2024/01/18 02:52:32;;;;;;;;;22.20;22.20;;;;;6.98;100.00;98518.16;2096754;28;46557;-66
2024/01/18 02:53:33;;;;;;;;;18.60;18.60;;;;;6.97;100.00;98520.88;2095327;28;45560;-66
2024/01/18 02:54:33;;;;;;;;;16.75;15.50;;;;;6.95;100.00;98517.47;2095382;28;46288;-66
2024/01/18 02:55:33;;;;;;;;;20.00;20.00;;;;;6.94;100.00;98521.00;2095020;28;46269;-65
2024/01/18 02:56:34;;;;;;;;;19.25;19.00;;;;;6.93;100.00;98514.03;2096702;28;46493;-65
2024/01/18 02:57:34;;;;;;;;;17.25;17.00;;;;;6.93;100.00;98519.31;2095375;28;45962;-65
2024/01/18 02:58:34;;;;;;;;;19.00;19.00;;;;;6.93;100.00;98514.03;2096086;28;47191;-65
2024/01/18 02:59:35;;;;;;;;;15.50;15.50;;;;;6.94;100.00;98510.47;2094963;28;46532;-65
2024/01/18 03:00:35;;;;;;;;;20.50;19.75;;;;;6.93;100.00;98501.69;2096813;28;46165;-65
2024/01/18 03:01:35;;;;;;;;;18.75;17.25;;;;;6.94;100.00;98513.09;2095516;28;47243;-66
2024/01/18 03:02:36;;;;;;;;;17.00;15.00;;;;;6.93;100.00;98504.34;2096261;28;45709;-66
2024/01/18 03:03:36;;;;;;;;;17.00;17.00;;;;;6.93;100.00;98508.75;2094895;28;46251;-66
2024/01/18 03:04:36;;;;;;;;;14.00;14.00;;;;;6.92;100.00;98504.41;2094760;28;47100;-66
2024/01/18 03:05:37;;;;;;;;;13.50;13.00;;;;;6.94;100.00;98507.84;2095312;28;46544;-66
2024/01/18 03:06:37;;;;;;;;;16.00;15.50;;;;;6.92;100.00;98510.53;2096213;28;46862;-66
2024/01/18 03:07:38;;;;;;;;;13.50;13.50;;;;;6.91;100.00;98513.25;2094209;28;45582;-67
2024/01/18 03:08:38;;;;;;;;;20.75;18.25;;;;;6.91;100.00;98510.59;2096616;28;45627;-67
2024/01/18 03:09:38;;;;;;;;;15.25;13.50;;;;;6.91;100.00;98522.00;2095645;28;46642;-67
2024/01/18 03:10:39;;;;;;;;;15.50;15.50;;;;;6.91;100.00;98511.47;2095707;28;46387;-67
2024/01/18 03:11:39;;;;;;;;;9.00;8.00;;;;;6.89;100.00;98515.94;2095711;28;46303;-67
2024/01/18 03:12:40;;;;;;;;;18.00;17.25;;;;;6.91;100.00;98516.72;2096043;28;46044;-65
2024/01/18 03:13:40;;;;;;;;;15.75;15.75;;;;;6.93;100.00;98524.56;2095447;28;46316;-65
2024/01/18 03:14:41;;;;;;;;;17.50;16.00;;;;;6.95;100.00;98528.84;2095768;28;45995;-66
2024/01/18 03:15:41;;;;;;;;;17.50;14.00;;;;;6.96;100.00;98525.28;2095829;28;46140;-65
2024/01/18 03:16:44;;;;;;;;;16.00;16.00;;;;;6.97;100.00;98526.16;2095900;28;45054;-65
2024/01/18 03:17:45;;;;;;;;;15.60;15.60;;;;;6.98;100.00;98533.13;2095672;28;46829;-65
2024/01/18 03:18:46;;;;;;;;;18.75;14.75;;;;;6.98;100.00;98534.00;2095612;28;45503;-66
2024/01/18 03:19:46;;;;;;;;;16.40;16.00;;;;;6.97;100.00;98523.50;2095750;28;46678;-66
2024/01/18 03:20:46;;;;;;;;;16.25;14.75;;;;;6.98;100.00;98523.44;2094785;28;46707;-66
2024/01/18 03:21:47;;;;;;;;;16.75;14.00;;;;;7.00;100.00;98536.59;2095093;28;46558;-66
2024/01/18 03:22:47;;;;;;;;;17.00;14.00;;;;;7.03;100.00;98534.69;2093260;28;45574;-66
2024/01/18 03:23:47;;;;;;;;;17.00;14.00;;;;;7.04;100.00;98532.91;2094075;28;46252;-66
2024/01/18 03:24:48;;;;;;;;;15.25;15.25;;;;;7.04;100.00;98536.38;2096053;28;46317;-66
2024/01/18 03:25:48;;;;;;;;;11.00;11.00;;;;;7.04;100.00;98536.38;2096488;28;46177;-66
2024/01/18 03:26:48;;;;;;;;;12.25;10.75;;;;;7.03;100.00;98542.59;2095255;28;45100;-66
2024/01/18 03:27:49;;;;;;;;;13.50;12.50;;;;;7.03;100.00;98542.59;2095502;28;46531;-65
2024/01/18 03:28:49;;;;;;;;;19.00;15.25;;;;;6.99;100.00;98538.38;2095488;28;45592;-66
2024/01/18 03:29:49;;;;;;;;;14.50;14.25;;;;;6.98;100.00;98547.19;2096202;28;46808;-66
2024/01/18 03:30:50;;;;;;;;;12.50;11.50;;;;;7.00;100.00;98544.50;2094581;28;46597;-67
2024/01/18 03:31:50;;;;;;;;;6.00;6.00;;;;;6.96;100.00;98541.13;2094940;28;45921;-66
2024/01/18 03:32:50;;;;;;;;;18.50;14.25;;;;;6.99;100.00;98553.34;2094436;28;46496;-66
2024/01/18 03:33:51;;;;;;;;;15.25;13.00;;;;;6.97;100.00;98552.53;2096590;28;46293;-66
2024/01/18 03:34:51;;;;;;;;;12.50;11.25;;;;;7.01;100.00;98549.72;2094605;28;46374;-66
2024/01/18 03:35:52;;;;;;;;;12.75;12.25;;;;;7.02;100.00;98561.13;2096681;28;45395;-66
2024/01/18 03:36:53;;;;;;;;;12.25;12.25;;;;;7.02;100.00;98564.63;2095182;28;45932;-66
2024/01/18 03:37:53;;;;;;;;;12.80;12.20;;;;;7.04;100.00;98569.81;2096496;28;46363;-66
2024/01/18 03:38:53;;;;;;;;;12.50;12.00;;;;;7.04;100.00;98570.69;2094717;28;46233;-66
2024/01/18 03:39:54;;;;;;;;;12.50;12.25;;;;;7.04;100.00;98569.81;2094523;28;46685;-66
2024/01/18 03:40:54;;;;;;;;;13.25;12.25;;;;;7.04;100.00;98572.44;2094571;28;46514;-66
2024/01/18 03:41:54;;;;;;;;;11.75;11.75;;;;;7.03;100.00;98576.88;2096266;28;46309;-66
2024/01/18 03:42:55;;;;;;;;;13.00;12.50;;;;;7.03;100.00;98571.59;2092532;28;46552;-66
2024/01/18 03:43:55;;;;;;;;;11.75;10.25;;;;;7.05;100.00;98577.66;2096813;28;46659;-66
2024/01/18 03:44:55;;;;;;;;;13.00;12.25;;;;;7.05;100.00;98582.09;2094403;28;46386;-66
2024/01/18 03:45:56;;;;;;;;;12.50;10.50;;;;;7.07;100.00;98588.16;2095308;28;46102;-65
2024/01/18 03:46:56;;;;;;;;;13.25;11.75;;;;;7.08;100.00;98581.94;2093726;28;46177;-66
2024/01/18 03:47:56;;;;;;;;;14.75;13.75;;;;;7.06;100.00;98584.66;2096228;28;46801;-66
2024/01/18 03:48:57;;;;;;;;;10.00;10.00;;;;;7.05;100.00;98582.94;2095255;28;46456;-66
2024/01/18 03:49:57;;;;;;;;;13.00;10.75;;;;;7.04;100.00;98585.63;2096836;28;45185;-65
2024/01/18 03:50:57;;;;;;;;;12.00;12.00;;;;;7.03;100.00;98595.34;2094535;28;46619;-65
2024/01/18 03:51:58;;;;;;;;;12.75;12.00;;;;;7.01;100.00;98594.53;2095916;28;46451;-66
2024/01/18 03:52:58;;;;;;;;;12.50;12.00;;;;;6.99;100.00;98593.75;2094615;28;46691;-65
2024/01/18 03:53:58;;;;;;;;;11.75;9.75;;;;;6.99;100.00;98595.53;2095723;28;45887;-65
2024/01/18 03:54:58;;;;;;;;;11.50;10.25;;;;;6.99;100.00;98604.31;2091739;28;46336;-65
2024/01/18 03:55:59;;;;;;;;;9.00;9.00;;;;;6.97;100.00;98597.34;2094868;28;46449;-65
2024/01/18 03:56:59;;;;;;;;;9.00;8.75;;;;;6.96;100.00;98601.75;2094532;28;47184;-66
2024/01/18 03:58:00;;;;;;;;;13.25;11.25;;;;;6.93;100.00;98612.44;2096500;28;46873;-66
2024/01/18 03:59:01;;;;;;;;;10.75;10.75;;;;;6.94;100.00;98602.75;2095304;28;45442;-65
2024/01/18 04:00:02;;;;;;;;;13.00;12.20;;;;;6.93;100.00;98609.81;2095640;28;45601;-65
2024/01/18 04:01:02;;;;;;;;;10.60;9.80;;;;;6.92;100.00;98608.09;2095033;28;46421;-66
2024/01/18 04:02:03;;;;;;;;;12.75;12.75;;;;;6.92;100.00;98604.59;2096605;28;47014;-67
2024/01/18 04:03:03;;;;;;;;;12.50;10.50;;;;;6.92;100.00;98608.09;2095537;28;45542;-66
2024/01/18 04:04:04;;;;;;;;;11.25;8.25;;;;;6.92;100.00;98612.50;2103545;28;46643;-66
2024/01/18 04:05:05;;;;;;;;;10.25;10.25;;;;;6.90;100.00;98609.94;2100802;28;46253;-66
2024/01/18 04:06:05;;;;;;;;;9.00;9.00;;;;;6.90;100.00;98619.63;2095062;28;46400;-66
2024/01/18 04:07:06;;;;;;;;;12.00;11.75;;;;;6.90;100.00;98617.84;2094426;28;46740;-66
2024/01/18 04:08:07;;;;;;;;;10.00;8.40;;;;;6.87;100.00;98628.53;2096205;28;46354;-66
2024/01/18 04:09:08;;;;;;;;;8.00;8.00;;;;;6.89;100.00;98624.03;2094505;28;46470;-66
2024/01/18 04:10:10;;;;;;;;;9.00;9.00;;;;;6.92;100.00;98625.69;2095973;28;45804;-65
2024/01/18 04:11:10;;;;;;;;;8.80;7.20;;;;;6.91;100.00;98626.63;2093784;28;46897;-65
2024/01/18 04:12:10;;;;;;;;;12.25;12.00;;;;;6.90;100.00;98627.53;2094945;28;46520;-65
2024/01/18 04:13:11;;;;;;;;;8.75;8.75;;;;;6.90;100.00;98632.81;2095227;28;46170;-66
2024/01/18 04:14:11;;;;;;;;;9.00;8.25;;;;;6.91;100.00;98634.53;2096305;28;46789;-66
2024/01/18 04:15:11;;;;;;;;;8.50;8.50;;;;;6.89;100.00;98631.97;2094613;28;46567;-65
2024/01/18 04:16:12;;;;;;;;;9.00;9.00;;;;;6.88;100.00;98632.03;2096370;28;46336;-65
2024/01/18 04:17:12;;;;;;;;;7.75;7.75;;;;;6.87;100.00;98632.94;2094887;28;45489;-66
2024/01/18 04:18:12;;;;;;;;;8.25;8.25;;;;;6.85;100.00;98634.75;2095544;28;46557;-66
2024/01/18 04:19:13;;;;;;;;;10.25;9.00;;;;;6.82;100.00;98626.97;2095421;28;45536;-66
2024/01/18 04:20:16;;;;;;;;;7.75;7.75;;;;;6.80;100.00;98648.13;2096148;28;46343;-66
2024/01/18 04:21:17;;;;;;;;;8.20;8.00;;;;;6.79;100.00;98651.69;2094428;28;46258;-66
2024/01/18 04:22:17;;;;;;;;;9.25;8.00;;;;;6.76;100.00;98647.41;2095894;28;45402;-66
2024/01/18 04:23:19;;;;;;;;;8.25;8.00;;;;;6.73;100.00;98650.16;2084543;28;45982;-66
2024/01/18 04:24:20;;;;;;;;;8.00;8.00;;;;;6.71;100.00;98654.59;2095280;28;45153;-66
2024/01/18 04:25:20;;;;;;;;;10.25;8.00;;;;;6.69;100.00;98653.81;2082362;28;47205;-66
2024/01/18 04:26:20;;;;;;;;;6.00;4.00;;;;;6.70;100.00;98658.16;2086961;28;46273;-66
2024/01/18 04:27:21;;;;;;;;;8.00;8.00;;;;;6.69;100.00;98659.09;2092932;28;45473;-67
2024/01/18 04:28:21;;;;;;;;;10.00;8.50;;;;;6.68;100.00;98665.28;2095785;28;46311;-67
2024/01/18 04:29:23;;;;;;;;;8.75;8.75;;;;;6.67;100.00;98666.19;2092983;28;46619;-67
2024/01/18 04:30:23;;;;;;;;;8.20;8.20;;;;;6.67;100.00;98667.97;2095890;28;46110;-67
2024/01/18 04:31:23;;;;;;;;;9.25;6.50;;;;;6.67;100.00;98668.84;2093757;28;46080;-66
2024/01/18 04:32:23;;;;;;;;;9.25;9.25;;;;;6.66;100.00;98674.16;2094916;28;47859;-65
2024/01/18 04:33:24;;;;;;;;;8.75;7.75;;;;;6.66;100.00;98675.03;2094920;28;46393;-66
2024/01/18 04:34:24;;;;;;;;;8.00;8.00;;;;;6.67;100.00;98678.53;2096392;28;46558;-65
2024/01/18 04:35:24;;;;;;;;;8.75;8.00;;;;;6.66;100.00;98680.31;2094347;28;46156;-66
2024/01/18 04:36:25;;;;;;;;;8.75;7.75;;;;;6.66;100.00;98687.34;2096398;28;47142;-66
2024/01/18 04:37:25;;;;;;;;;8.75;8.00;;;;;6.66;100.00;98685.56;2094897;28;46412;-66
2024/01/18 04:38:26;;;;;;;;;11.00;9.00;;;;;6.65;100.00;98689.13;2095594;28;45988;-66
2024/01/18 04:39:27;;;;;;;;;11.75;10.25;;;;;6.66;100.00;98692.63;2094967;28;46401;-66
2024/01/18 04:40:27;;;;;;;;;7.80;7.80;;;;;6.68;100.00;98698.69;2091553;28;46622;-66